createdAt,value
2023-04-29T00:03:25.667Z,12.41
2023-04-29T00:08:29.062Z,12.35
2023-04-29T00:13:32.303Z,12.27
2023-04-29T00:18:35.290Z,12.20
2023-04-29T00:23:38.350Z,12.14
2023-04-29T00:28:41.633Z,12.09
2023-04-29T00:33:46.071Z,12.03
2023-04-29T00:38:49.077Z,11.97
2023-04-29T00:43:52.760Z,11.92
2023-04-29T00:48:56.062Z,11.88
2023-04-29T00:53:59.132Z,11.85
2023-04-29T00:59:03.812Z,11.78
2023-04-29T01:04:08.446Z,11.70
2023-04-29T01:09:36.295Z,11.65
2023-04-29T01:14:39.856Z,11.58
2023-04-29T01:25:27.787Z,11.41
2023-04-29T01:31:31.435Z,11.33
2023-04-29T01:36:44.395Z,11.25
2023-04-29T01:41:59.072Z,11.15
2023-04-29T01:47:06.464Z,11.06
2023-04-29T01:52:16.693Z,10.99
2023-04-29T01:57:27.954Z,10.94
2023-04-29T02:02:37.725Z,10.90
2023-04-29T02:07:48.744Z,10.87
2023-04-29T02:12:52.159Z,10.85
2023-04-29T02:17:56.160Z,10.86
2023-04-29T02:22:59.773Z,10.88
2023-04-29T02:28:03.379Z,10.91
2023-04-29T02:33:08.451Z,10.93
2023-04-29T02:38:27.168Z,10.94
2023-04-29T02:43:33.032Z,10.95
2023-04-29T02:48:37.957Z,10.99
2023-04-29T02:53:43.611Z,11.01
2023-04-29T02:58:46.965Z,11.05
2023-04-29T03:03:50.521Z,11.14
2023-04-29T03:09:03.496Z,11.19
2023-04-29T03:14:06.793Z,11.27
2023-04-29T03:19:10.726Z,11.29
2023-04-29T03:24:14.160Z,11.28
2023-04-29T03:29:17.608Z,11.28
2023-04-29T03:34:29.029Z,11.26
2023-04-29T03:39:49.165Z,11.27
2023-04-29T03:44:52.595Z,11.30
2023-04-29T03:49:55.964Z,11.33
2023-04-29T03:54:59.377Z,11.32
2023-04-29T04:00:04.959Z,11.29
2023-04-29T04:05:16.784Z,11.28
2023-04-29T04:10:25.054Z,11.26
2023-04-29T04:15:29.445Z,11.27
2023-04-29T04:20:33.323Z,11.28
2023-04-29T04:25:37.235Z,11.27
2023-04-29T04:30:55.353Z,11.26
2023-04-29T04:35:58.750Z,11.28
2023-04-29T04:41:02.931Z,11.29
2023-04-29T04:46:13.735Z,11.28
2023-04-29T04:51:24.997Z,11.31
2023-04-29T04:56:29.080Z,11.33
2023-04-29T05:01:33.259Z,11.36
2023-04-29T05:06:37.849Z,11.39
2023-04-29T05:11:42.288Z,11.43
2023-04-29T05:16:51.681Z,11.49
2023-04-29T05:21:55.893Z,11.53
2023-04-29T05:27:00.533Z,11.57
2023-04-29T05:32:04.639Z,11.62
2023-04-29T05:37:08.192Z,11.69
2023-04-29T05:42:20.327Z,11.76
2023-04-29T05:47:27.029Z,11.81
2023-04-29T05:52:30.619Z,11.88
2023-04-29T05:57:35.366Z,11.94
2023-04-29T06:02:51.049Z,12.03
2023-04-29T06:08:03.166Z,12.14
2023-04-29T06:13:20.814Z,12.24
2023-04-29T06:18:25.317Z,12.34
2023-04-29T06:23:28.777Z,12.43
2023-04-29T06:28:32.292Z,12.52
2023-04-29T06:33:35.984Z,12.62
2023-04-29T06:38:39.278Z,12.71
2023-04-29T06:44:06.630Z,12.83
2023-04-29T06:49:31.178Z,12.97
2023-04-29T06:54:35.878Z,13.10
2023-04-29T06:59:39.122Z,13.22
2023-04-29T07:10:34.124Z,13.65
2023-04-29T07:15:37.666Z,13.92
2023-04-29T07:20:40.933Z,14.22
2023-04-29T07:25:44.439Z,14.46
2023-04-29T07:30:47.783Z,14.71
2023-04-29T07:35:50.873Z,14.78
2023-04-29T07:40:53.975Z,14.77
2023-04-29T07:45:57.146Z,14.80
2023-04-29T07:51:00.389Z,14.87
2023-04-29T07:56:07.757Z,15.01
2023-04-29T08:01:12.478Z,15.14
2023-04-29T08:06:18.563Z,15.23
2023-04-29T08:11:24.666Z,15.32
2023-04-29T08:16:28.167Z,15.48
2023-04-29T08:21:32.767Z,15.66
2023-04-29T08:26:35.841Z,15.82
2023-04-29T08:31:38.947Z,15.94
2023-04-29T08:36:45.122Z,16.06
2023-04-29T08:41:53.650Z,16.22
2023-04-29T08:46:59.702Z,16.36
2023-04-29T08:52:04.286Z,16.48
2023-04-29T08:57:07.793Z,16.59
2023-04-29T09:02:17.179Z,16.68
2023-04-29T09:07:20.707Z,16.81
2023-04-29T09:12:23.798Z,16.92
2023-04-29T09:18:00.077Z,17.03
2023-04-29T09:23:04.804Z,17.14
2023-04-29T09:28:17.509Z,17.25
2023-04-29T09:33:20.710Z,17.33
2023-04-29T09:38:23.911Z,17.38
2023-04-29T09:43:27.129Z,17.43
2023-04-29T09:48:33.926Z,17.49
2023-04-29T09:53:40.251Z,17.61
2023-04-29T09:58:43.486Z,17.75
2023-04-29T10:03:49.278Z,17.89
2023-04-29T10:08:52.546Z,17.99
2023-04-29T10:13:56.136Z,18.01
2023-04-29T10:19:03.824Z,18.06
2023-04-29T10:24:08.070Z,18.11
2023-04-29T10:29:14.165Z,18.18
2023-04-29T10:34:18.264Z,18.15
2023-04-29T10:39:36.328Z,18.07
2023-04-29T10:45:21.543Z,17.97
2023-04-29T10:50:24.573Z,17.87
2023-04-29T10:55:27.649Z,17.84
2023-04-29T11:00:33.903Z,17.82
2023-04-29T11:05:37.756Z,17.83
2023-04-29T11:10:44.073Z,17.87
2023-04-29T11:15:47.215Z,17.91
2023-04-29T11:21:05.040Z,18.01
2023-04-29T11:26:08.272Z,18.05
2023-04-29T11:31:11.404Z,18.19
2023-04-29T11:36:15.420Z,18.33
2023-04-29T11:41:18.747Z,18.37
2023-04-29T11:46:21.766Z,18.37
2023-04-29T11:51:24.837Z,18.47
2023-04-29T11:56:28.001Z,18.63
2023-04-29T12:01:34.163Z,18.80
2023-04-29T12:06:37.335Z,18.94
2023-04-29T12:11:41.442Z,19.05
2023-04-29T12:16:46.387Z,19.09
2023-04-29T12:21:50.391Z,19.12
2023-04-29T12:26:55.857Z,19.14
2023-04-29T12:31:59.055Z,19.16
2023-04-29T12:37:02.964Z,19.20
2023-04-29T12:42:05.983Z,19.25
2023-04-29T12:47:10.785Z,19.30
2023-04-29T12:52:14.340Z,19.32
2023-04-29T12:57:17.433Z,19.34
2023-04-29T13:02:20.737Z,19.36
2023-04-29T13:07:23.980Z,19.38
2023-04-29T13:12:27.298Z,19.40
2023-04-29T13:17:30.471Z,19.41
2023-04-29T13:22:34.041Z,19.34
2023-04-29T13:27:37.317Z,19.24
2023-04-29T13:32:46.305Z,19.11
2023-04-29T13:37:55.777Z,18.98
2023-04-29T13:43:06.098Z,18.86
2023-04-29T13:48:34.858Z,18.74
2023-04-29T13:59:30.556Z,18.50
2023-04-29T14:04:06.574Z,18.38
2023-04-29T14:09:09.954Z,18.28
2023-04-29T14:14:13.110Z,18.18
2023-04-29T14:19:16.272Z,18.10
2023-04-29T14:24:21.636Z,18.01
2023-04-29T14:29:24.925Z,17.94
2023-04-29T14:34:27.926Z,17.88
2023-04-29T14:39:31.161Z,17.84
2023-04-29T14:44:34.628Z,17.80
2023-04-29T14:49:37.805Z,17.76
2023-04-29T14:54:41.201Z,17.72
2023-04-29T14:59:44.641Z,17.67
2023-04-29T15:04:47.912Z,17.62
2023-04-29T15:09:51.310Z,17.59
2023-04-29T15:14:54.523Z,17.56
2023-04-29T15:19:57.804Z,17.54
2023-04-29T15:25:01.369Z,17.53
2023-04-29T15:30:06.044Z,17.54
2023-04-29T15:35:09.539Z,17.55
2023-04-29T15:40:13.090Z,17.54
2023-04-29T15:45:17.126Z,17.54
2023-04-29T15:50:21.088Z,17.71
2023-04-29T15:55:24.221Z,18.11
2023-04-29T16:00:27.285Z,18.29
2023-04-29T16:05:31.812Z,18.32
2023-04-29T16:10:35.010Z,18.29
2023-04-29T16:15:38.061Z,18.21
2023-04-29T16:20:41.937Z,18.11
2023-04-29T16:25:45.191Z,18.01
2023-04-29T16:30:48.204Z,17.91
2023-04-29T16:35:51.907Z,17.82
2023-04-29T16:40:55.159Z,17.75
2023-04-29T16:45:58.630Z,17.69
2023-04-29T16:51:02.736Z,17.65
2023-04-29T16:56:06.156Z,17.63
2023-04-29T17:01:09.319Z,17.57
2023-04-29T17:06:13.865Z,17.50
2023-04-29T17:11:18.434Z,17.43
2023-04-29T17:16:21.551Z,17.35
2023-04-29T17:21:26.032Z,17.28
2023-04-29T17:26:29.117Z,17.21
2023-04-29T17:31:45.243Z,17.22
2023-04-29T17:36:48.654Z,17.45
2023-04-29T17:41:52.023Z,17.72
2023-04-29T17:46:55.178Z,17.82
2023-04-29T17:52:04.415Z,17.71
2023-04-29T17:57:08.661Z,17.51
2023-04-29T18:02:11.818Z,17.30
2023-04-29T18:07:15.212Z,17.09
2023-04-29T18:12:18.341Z,16.88
2023-04-29T18:17:21.367Z,17.35
2023-04-29T18:22:24.558Z,19.44
2023-04-29T18:27:27.634Z,20.08
2023-04-29T18:32:31.536Z,18.98
2023-04-29T18:37:34.912Z,18.28
2023-04-29T18:42:37.998Z,17.79
2023-04-29T18:47:41.131Z,17.38
2023-04-29T18:52:44.177Z,17.65
2023-04-29T18:57:47.137Z,19.59
2023-04-29T19:02:50.333Z,20.01
2023-04-29T19:07:53.404Z,18.78
2023-04-29T19:12:56.645Z,18.02
2023-04-29T19:17:59.977Z,17.52
2023-04-29T19:23:03.348Z,17.09
2023-04-29T19:28:09.423Z,16.73
2023-04-29T19:33:13.979Z,17.25
2023-04-29T19:38:17.516Z,19.30
2023-04-29T19:43:20.759Z,19.87
2023-04-29T19:48:23.982Z,18.65
2023-04-29T19:53:27.886Z,17.86
2023-04-29T19:58:31.150Z,17.31
2023-04-29T20:03:36.253Z,16.89
2023-04-29T20:08:39.550Z,17.30
2023-04-29T20:13:42.680Z,19.37
2023-04-29T20:18:45.989Z,20.12
2023-04-29T20:23:49.404Z,18.81
2023-04-29T20:28:52.410Z,17.96
2023-04-29T20:33:55.471Z,17.39
2023-04-29T20:38:58.531Z,16.93
2023-04-29T20:44:11.927Z,17.32
2023-04-29T20:49:15.069Z,19.43
2023-04-29T20:54:18.000Z,19.86
2023-04-29T20:59:21.051Z,18.59
2023-04-29T21:04:24.501Z,17.80
2023-04-29T21:09:27.848Z,17.24
2023-04-29T21:14:31.349Z,16.78
2023-04-29T21:19:37.826Z,17.16
2023-04-29T21:24:41.814Z,19.16
2023-04-29T21:29:44.844Z,19.79
2023-04-29T21:34:48.454Z,18.47
2023-04-29T21:39:51.606Z,17.63
2023-04-29T21:44:57.470Z,17.08
2023-04-29T21:50:01.286Z,16.64
2023-04-29T21:55:04.895Z,17.14
2023-04-29T22:00:19.495Z,19.24
2023-04-29T22:05:22.648Z,19.75
2023-04-29T22:10:26.051Z,18.47
2023-04-29T22:15:29.650Z,17.67
2023-04-29T22:20:33.130Z,17.10
2023-04-29T22:25:36.245Z,16.64
2023-04-29T22:30:39.246Z,17.13
2023-04-29T22:35:42.304Z,19.25
2023-04-29T22:40:51.060Z,19.84
2023-04-29T22:45:55.031Z,18.53
2023-04-29T22:51:03.243Z,17.71
2023-04-29T22:56:06.546Z,17.17
2023-04-29T23:01:11.771Z,16.73
2023-04-29T23:06:15.279Z,17.21
2023-04-29T23:11:18.391Z,19.36
2023-04-29T23:16:21.486Z,19.91
2023-04-29T23:21:27.362Z,18.57
2023-04-29T23:26:30.756Z,17.72
2023-04-29T23:31:33.889Z,17.15
2023-04-29T23:36:36.892Z,16.68
2023-04-29T23:41:40.283Z,17.16
2023-04-29T23:46:43.374Z,19.20
2023-04-29T23:51:46.654Z,19.67
2023-04-29T23:56:49.581Z,18.32
